首页
METAR-TAF:

METAR-TAF

机场 :

多莫杰多沃国际机场

莫斯科多莫傑多沃, 俄罗斯

纬度: 55-24N, 经度: 037-54E, 海拔: 179米

当前天气观测

该预报发布于33分钟前的03:00 UTC
风速4节,风向西南,在南转南东西之间变化
温度 -4°C
湿度 93%
气压 1020 hPa
能見度: 8000

METAR: UUDD 210300Z 23002MPS 160V260 8000 NSC M04/M05 Q1020 R14R/CLRD60 NOSIG

时间: 06:33 (03:33 UTC)

预报

该预报发布于1小时和38分钟前的01:55 UTC
预报有效从21日的 03点(UTC)到 22日的 09点(UTC)
风速6节,风向南转西南
能見度: 6000
散云层高于1600英尺
短暂存在
从 21日的 03点(UTC)到 21日的 07点(UTC)
能見度: 0300
少量云层高于200英尺
冻雾

TAF: UUDD 210155Z 2103/2209 20003MPS 6000 SCT016 TX05/2112Z TNM03/2104Z TEMPO 2103/2107 0300 FZFG FEW002

超过4000个机场的气象观测和天气预报(METAR&TAF报告)。

可查询的气象台以黄色和红色小点在地图上表示。

将鼠标移到小点上方,可查看气象台名称。

然后点击查看天气观测和预报。

如需切换地图:点击带黑十字的绿色按钮放大地图;点击带横线的绿色按钮缩小地图;或者点击绿色箭头查看邻近地区的地图。


METAR-TAF: